Time;durP1;ratioP1;P1;durP2;ratioP2;P2;SDS_P1;SDS_P2;PMS_P1;PMS_P2;Temp;Humidity;BMP_temperature;BMP_pressure;BME280_temperature;BME280_humidity;BME280_pressure;Samples;Min_cycle;Max_cycle;Signal;HPM_P1;HPM_P2
2023/04/14 00:00:32;;;;;;;11.82;2.25;;;3.90;99.90;;;;;;4879732;29;20451;-91
2023/04/14 00:02:59;;;;;;;12.17;1.80;;;4.00;99.90;;;;;;4879096;29;20480;-90
2023/04/14 00:05:33;;;;;;;11.00;2.08;;;4.10;99.90;;;;;;4878763;29;20922;-91
2023/04/14 00:07:59;;;;;;;9.77;2.30;;;4.30;99.90;;;;;;4879184;29;20472;-90
2023/04/14 00:10:25;;;;;;;10.43;2.10;;;4.00;99.90;;;;;;4878410;29;20484;-89
2023/04/14 00:12:52;;;;;;;9.70;1.60;;;4.10;99.90;;;;;;4879483;29;20417;-90
2023/04/14 00:15:17;;;;;;;11.27;2.33;;;3.70;99.90;;;;;;4878056;29;20441;-89
2023/04/14 00:17:44;;;;;;;12.38;2.33;;;4.00;99.90;;;;;;4878859;29;20429;-90
2023/04/14 00:20:10;;;;;;;12.03;2.50;;;4.10;99.90;;;;;;4878475;29;20413;-90
2023/04/14 00:22:36;;;;;;;13.33;2.10;;;3.80;99.90;;;;;;4878884;29;20501;-90
2023/04/14 00:25:02;;;;;;;11.93;2.30;;;3.80;99.90;;;;;;4878917;29;20945;-90
2023/04/14 00:27:28;;;;;;;11.30;2.53;;;3.70;99.90;;;;;;4878495;29;20456;-89
2023/04/14 00:29:54;;;;;;;11.50;2.72;;;3.70;99.90;;;;;;4879012;29;20779;-89
2023/04/14 00:32:20;;;;;;;9.15;2.10;;;3.80;99.90;;;;;;4878677;29;20421;-89
2023/04/14 00:34:45;;;;;;;11.55;2.80;;;3.70;99.90;;;;;;4879244;29;20427;-91
2023/04/14 00:37:11;;;;;;;13.65;2.92;;;3.90;99.90;;;;;;4878446;29;20524;-90
2023/04/14 00:39:37;;;;;;;10.17;2.60;;;3.80;99.90;;;;;;4878976;29;21056;-91
2023/04/14 00:42:03;;;;;;;12.55;2.83;;;3.70;99.90;;;;;;4878836;29;20866;-90
2023/04/14 00:44:29;;;;;;;11.70;3.10;;;3.60;99.90;;;;;;4878961;29;20412;-92
2023/04/14 00:46:56;;;;;;;12.93;2.97;;;3.60;99.90;;;;;;4879115;29;20425;-90
2023/04/14 00:49:23;;;;;;;12.38;3.17;;;3.60;99.90;;;;;;4888137;29;20420;-90
2023/04/14 00:51:49;;;;;;;13.48;2.95;;;3.80;99.90;;;;;;4897874;29;20494;-90
2023/04/14 00:54:17;;;;;;;11.70;3.03;;;3.70;99.90;;;;;;4897053;29;20438;-91
2023/04/14 00:56:44;;;;;;;12.35;3.30;;;3.40;99.90;;;;;;4897665;29;20463;-90
2023/04/14 00:59:11;;;;;;;11.83;2.83;;;3.70;99.90;;;;;;4896575;29;20423;-89
2023/04/14 01:01:37;;;;;;;11.63;2.95;;;3.40;99.90;;;;;;4897386;29;20438;-89
2023/04/14 01:04:03;;;;;;;12.63;2.90;;;3.20;99.90;;;;;;4897213;29;20943;-91
2023/04/14 01:06:29;;;;;;;10.38;3.20;;;3.40;99.90;;;;;;4896868;29;20424;-91
2023/04/14 01:08:56;;;;;;;10.73;2.77;;;3.70;99.90;;;;;;4897154;29;21020;-91
2023/04/14 01:11:58;;;;;;;12.98;2.78;;;3.60;99.90;;;;;;4896837;29;20438;-89
2023/04/14 01:14:45;;;;;;;13.65;2.92;;;3.40;99.90;;;;;;4897659;29;20444;-90
2023/04/14 01:17:14;;;;;;;12.27;3.30;;;3.40;99.90;;;;;;4896885;29;21015;-90
2023/04/14 01:20:15;;;;;;;12.73;3.13;;;3.30;99.90;;;;;;4897054;29;20482;-91
2023/04/14 01:22:48;;;;;;;13.10;3.20;;;3.30;99.90;;;;;;4897641;29;20419;-90
2023/04/14 01:25:45;;;;;;;8.88;2.85;;;3.50;99.90;;;;;;4896655;29;20419;-91
2023/04/14 01:28:35;;;;;;;11.68;3.10;;;3.20;99.90;;;;;;4899017;29;20780;-90
2023/04/14 01:31:17;;;;;;;12.10;3.22;;;3.20;99.90;;;;;;4901094;29;20458;-89
2023/04/14 01:33:55;;;;;;;10.88;2.92;;;3.20;99.90;;;;;;4900539;29;20432;-90
2023/04/14 01:36:27;;;;;;;9.20;2.78;;;3.40;99.90;;;;;;4900261;29;20992;-90
2023/04/14 01:38:55;;;;;;;9.47;2.73;;;3.00;99.90;;;;;;4900600;29;20518;-90
2023/04/14 01:41:22;;;;;;;12.90;2.90;;;3.10;99.90;;;;;;4900217;29;20548;-91
2023/04/14 01:43:52;;;;;;;11.05;2.72;;;3.10;99.90;;;;;;4900635;29;20420;-91
2023/04/14 01:46:20;;;;;;;11.88;3.40;;;3.40;99.90;;;;;;4899738;29;20920;-91
2023/04/14 01:48:48;;;;;;;9.60;2.70;;;3.30;99.90;;;;;;4900415;29;20416;-90
2023/04/14 01:51:18;;;;;;;12.40;2.80;;;3.40;99.90;;;;;;4900052;29;20456;-90
2023/04/14 01:53:46;;;;;;;11.23;2.58;;;3.60;99.90;;;;;;4900225;29;21017;-91
2023/04/14 01:56:13;;;;;;;12.15;2.45;;;3.30;99.90;;;;;;4898945;29;20436;-89
2023/04/14 01:58:41;;;;;;;10.65;2.28;;;3.50;99.90;;;;;;4898277;29;20917;-90
2023/04/14 02:01:07;;;;;;;11.20;2.50;;;3.10;99.90;;;;;;4899320;29;20812;-89
2023/04/14 02:03:34;;;;;;;12.37;2.77;;;3.20;99.90;;;;;;4898312;29;20419;-90
2023/04/14 02:06:02;;;;;;;13.75;2.90;;;3.70;99.90;;;;;;4900276;29;20423;-90
2023/04/14 02:08:30;;;;;;;12.05;3.05;;;3.50;99.90;;;;;;4899237;29;20980;-91
2023/04/14 02:10:57;;;;;;;12.32;2.85;;;3.50;99.90;;;;;;4899924;29;20415;-90
2023/04/14 02:13:26;;;;;;;11.30;3.17;;;3.40;99.90;;;;;;4900016;29;20415;-89
2023/04/14 02:15:52;;;;;;;11.15;2.92;;;3.40;99.90;;;;;;4899365;29;20936;-90
2023/04/14 02:18:20;;;;;;;8.52;2.58;;;3.40;99.90;;;;;;4900067;29;20466;-90
2023/04/14 02:20:48;;;;;;;11.15;2.88;;;3.30;99.90;;;;;;4899261;29;20451;-90
2023/04/14 02:23:14;;;;;;;8.40;2.63;;;3.40;99.90;;;;;;4899991;29;20430;-90
2023/04/14 02:25:48;;;;;;;11.00;3.05;;;3.50;99.90;;;;;;4899248;29;20916;-91
2023/04/14 02:28:18;;;;;;;11.45;2.80;;;3.30;99.90;;;;;;4899714;29;20474;-90
2023/04/14 02:30:46;;;;;;;10.20;2.40;;;3.40;99.90;;;;;;4899336;29;20455;-89
2023/04/14 02:33:16;;;;;;;11.35;3.05;;;3.30;99.90;;;;;;4899024;29;20459;-90
2023/04/14 02:35:47;;;;;;;12.60;2.97;;;3.30;99.90;;;;;;4899106;29;20466;-88
2023/04/14 02:38:21;;;;;;;8.68;2.65;;;3.40;99.90;;;;;;4898779;29;21006;-90
2023/04/14 02:40:47;;;;;;;9.63;2.70;;;3.20;99.90;;;;;;4899230;29;20415;-92
2023/04/14 02:43:22;;;;;;;8.75;2.90;;;3.90;99.90;;;;;;4899171;29;20459;-91
2023/04/14 02:45:51;;;;;;;8.63;2.73;;;3.20;99.90;;;;;;4898847;29;20456;-91
2023/04/14 02:48:20;;;;;;;10.07;3.07;;;3.30;99.90;;;;;;4899011;29;20423;-90
2023/04/14 02:50:49;;;;;;;9.38;3.08;;;3.10;99.90;;;;;;4898535;29;20415;-91
2023/04/14 02:53:19;;;;;;;11.27;3.03;;;3.10;99.90;;;;;;4899315;29;20447;-90
2023/04/14 02:55:46;;;;;;;9.48;3.15;;;3.20;99.90;;;;;;4898695;29;20442;-90
2023/04/14 02:58:13;;;;;;;9.77;2.85;;;3.40;99.90;;;;;;4898838;29;20428;-90
2023/04/14 03:00:43;;;;;;;9.15;3.40;;;3.10;99.90;;;;;;4898590;29;20455;-90
2023/04/14 03:03:11;;;;;;;11.00;3.40;;;3.00;99.90;;;;;;4899049;29;20435;-90
2023/04/14 03:05:42;;;;;;;11.82;3.65;;;3.00;99.90;;;;;;4898541;29;20421;-92
2023/04/14 03:08:11;;;;;;;10.48;3.25;;;2.90;99.90;;;;;;4898336;29;20419;-88
2023/04/14 03:10:38;;;;;;;11.20;3.47;;;2.80;99.90;;;;;;4898860;29;20416;-91
2023/04/14 03:13:05;;;;;;;12.05;3.60;;;2.90;99.90;;;;;;4898021;29;20424;-91
2023/04/14 03:15:32;;;;;;;12.70;3.73;;;2.80;99.90;;;;;;4898982;29;20486;-91
2023/04/14 03:17:58;;;;;;;12.65;3.38;;;3.00;99.90;;;;;;4898281;29;20412;-90
2023/04/14 03:20:25;;;;;;;12.70;3.60;;;2.70;99.90;;;;;;4898668;29;20419;-90
2023/04/14 03:22:57;;;;;;;9.52;3.53;;;2.60;99.90;;;;;;4898658;29;20912;-90
2023/04/14 03:25:27;;;;;;;10.02;3.60;;;2.80;99.90;;;;;;4898033;29;20893;-90
2023/04/14 03:27:57;;;;;;;11.25;3.70;;;2.90;99.90;;;;;;4898640;29;21045;-89
2023/04/14 03:30:25;;;;;;;11.25;3.67;;;2.60;99.90;;;;;;4898110;29;20434;-89
2023/04/14 03:32:52;;;;;;;11.85;3.97;;;2.60;99.90;;;;;;4898633;29;20411;-89
2023/04/14 03:35:20;;;;;;;7.63;3.60;;;2.50;99.90;;;;;;4897584;29;20510;-92
2023/04/14 03:37:49;;;;;;;9.98;3.80;;;2.50;99.90;;;;;;4897994;29;20412;-90
2023/04/14 03:40:16;;;;;;;12.23;3.95;;;2.50;99.90;;;;;;4897905;29;20419;-92
2023/04/14 03:42:44;;;;;;;10.60;4.03;;;2.70;99.90;;;;;;4897757;29;20426;-90
2023/04/14 03:45:11;;;;;;;10.27;4.10;;;2.60;99.90;;;;;;4897918;29;20411;-91
2023/04/14 03:47:37;;;;;;;11.77;3.80;;;2.50;99.90;;;;;;4897457;29;20423;-90
2023/04/14 03:50:07;;;;;;;12.50;4.28;;;2.40;99.90;;;;;;4898429;29;20514;-90
2023/04/14 03:52:35;;;;;;;12.13;4.65;;;2.20;99.90;;;;;;4897608;29;20415;-91
2023/04/14 03:55:05;;;;;;;11.05;4.22;;;2.30;99.90;;;;;;4897767;29;20454;-90
2023/04/14 03:57:32;;;;;;;12.15;4.47;;;2.30;99.90;;;;;;4897985;29;20472;-90
2023/04/14 04:00:00;;;;;;;11.70;4.65;;;2.20;99.90;;;;;;4897298;29;20423;-90
2023/04/14 04:02:27;;;;;;;11.50;4.40;;;2.30;99.90;;;;;;4897976;29;20411;-92
2023/04/14 04:04:55;;;;;;;14.77;5.10;;;2.20;99.90;;;;;;4897208;29;20471;-90
2023/04/14 04:07:21;;;;;;;11.80;4.40;;;2.30;99.90;;;;;;4897926;29;20506;-92
2023/04/14 04:09:48;;;;;;;8.82;4.43;;;2.20;99.90;;;;;;4897623;29;20429;-93
2023/04/14 04:12:17;;;;;;;10.60;4.95;;;2.10;99.90;;;;;;4897935;29;20486;-91
2023/04/14 04:14:43;;;;;;;10.50;4.40;;;2.10;99.90;;;;;;4897508;29;20408;-91
2023/04/14 04:17:11;;;;;;;11.65;4.65;;;2.40;99.90;;;;;;4897545;29;20522;-89
2023/04/14 04:19:39;;;;;;;13.90;4.60;;;2.00;99.90;;;;;;4897913;29;20415;-91
2023/04/14 04:22:06;;;;;;;11.73;4.65;;;2.10;99.90;;;;;;4897690;29;20854;-91
2023/04/14 04:24:37;;;;;;;12.50;4.50;;;2.00;99.90;;;;;;4898094;29;20462;-91
2023/04/14 04:27:03;;;;;;;11.57;5.20;;;2.00;99.90;;;;;;4897075;29;20503;-90
2023/04/14 04:29:29;;;;;;;12.85;5.13;;;1.90;99.90;;;;;;4898228;29;20534;-91
2023/04/14 04:31:55;;;;;;;10.80;5.20;;;2.00;99.90;;;;;;4897515;29;20499;-91
2023/04/14 04:34:23;;;;;;;12.90;5.50;;;1.90;99.90;;;;;;4897146;29;21011;-92
2023/04/14 04:36:49;;;;;;;11.75;5.30;;;1.90;99.90;;;;;;4897522;29;20447;-91
2023/04/14 04:39:15;;;;;;;11.57;5.97;;;1.80;99.90;;;;;;4897087;29;20455;-91
2023/04/14 04:41:41;;;;;;;14.90;5.95;;;1.80;99.90;;;;;;4897632;29;20458;-89
2023/04/14 04:44:06;;;;;;;13.30;5.90;;;1.80;99.90;;;;;;4896713;29;20444;-91
2023/04/14 04:46:51;;;;;;;15.40;5.77;;;1.70;99.90;;;;;;4897634;29;20426;-91
2023/04/14 04:49:16;;;;;;;14.30;5.55;;;1.80;99.90;;;;;;4897169;29;20430;-91
2023/04/14 04:51:42;;;;;;;14.90;5.57;;;1.80;99.90;;;;;;4895070;29;20419;-91
2023/04/14 04:54:08;;;;;;;14.27;6.18;;;1.70;99.90;;;;;;4891508;29;20424;-90
2023/04/14 04:56:34;;;;;;;14.23;5.80;;;1.80;99.90;;;;;;4877036;29;20445;-92
2023/04/14 04:59:01;;;;;;;16.92;5.60;;;1.90;99.90;;;;;;4874747;29;20422;-92
2023/04/14 05:01:27;;;;;;;12.97;5.83;;;1.80;99.90;;;;;;4867866;29;20927;-92
2023/04/14 05:03:52;;;;;;;13.27;5.60;;;1.90;99.90;;;;;;4862677;29;20945;-92
2023/04/14 05:06:18;;;;;;;15.47;5.30;;;1.90;99.90;;;;;;4863436;29;20505;-90
2023/04/14 05:08:44;;;;;;;12.60;5.40;;;2.00;99.90;;;;;;4863354;29;20954;-92
2023/04/14 05:11:10;;;;;;;12.95;5.63;;;2.20;99.90;;;;;;4864098;29;20423;-91
2023/04/14 05:14:05;;;;;;;15.07;5.68;;;1.90;99.90;;;;;;4874550;29;20485;-92
2023/04/14 05:16:31;;;;;;;15.23;4.82;;;2.10;99.90;;;;;;4879881;29;20489;-93
2023/04/14 05:18:56;;;;;;;12.07;4.43;;;2.20;99.90;;;;;;4880880;29;20425;-92
2023/04/14 05:21:22;;;;;;;10.77;4.00;;;2.20;99.90;;;;;;4881666;29;20830;-93
2023/04/14 05:23:48;;;;;;;11.93;3.70;;;2.50;99.90;;;;;;4881564;29;20425;-91
2023/04/14 05:26:15;;;;;;;9.88;3.72;;;2.50;99.90;;;;;;4881817;29;20417;-93
2023/04/14 05:28:41;;;;;;;11.55;3.90;;;2.70;99.90;;;;;;4881166;29;20432;-92
2023/04/14 05:31:07;;;;;;;11.85;4.13;;;2.90;99.90;;;;;;4881269;29;20815;-92
2023/04/14 05:33:34;;;;;;;12.85;3.58;;;2.90;99.90;;;;;;4880836;29;20425;-94
2023/04/14 05:36:00;;;;;;;10.27;3.25;;;3.00;99.90;;;;;;4880631;29;20590;-92
2023/04/14 05:38:26;;;;;;;11.75;3.63;;;3.10;99.90;;;;;;4882119;29;20810;-92
2023/04/14 05:40:52;;;;;;;9.40;3.67;;;3.20;99.90;;;;;;4896325;29;20425;-93
2023/04/14 05:43:18;;;;;;;8.33;3.60;;;3.30;99.90;;;;;;4881500;29;20439;-91
2023/04/14 05:45:47;;;;;;;12.82;4.00;;;3.30;99.90;;;;;;4877235;29;20422;-91
2023/04/14 05:48:13;;;;;;;10.23;3.40;;;3.60;99.90;;;;;;4862210;29;20431;-91
2023/04/14 05:50:39;;;;;;;10.07;3.20;;;3.50;99.90;;;;;;4862450;29;20415;-91
2023/04/14 05:53:05;;;;;;;7.65;3.10;;;3.60;99.90;;;;;;4865340;29;20774;-92
2023/04/14 05:55:31;;;;;;;9.23;3.13;;;3.80;99.90;;;;;;4871101;29;20458;-91
2023/04/14 05:57:57;;;;;;;10.80;3.08;;;3.90;99.90;;;;;;4870702;29;20461;-92
2023/04/14 06:00:24;;;;;;;12.38;4.88;;;4.00;99.90;;;;;;4863158;29;20433;-92
2023/04/14 06:02:50;;;;;;;12.93;6.60;;;4.10;99.90;;;;;;4880302;29;20493;-91
2023/04/14 06:05:17;;;;;;;14.90;5.37;;;4.20;99.90;;;;;;4880366;29;20421;-91
2023/04/14 06:07:42;;;;;;;9.38;3.83;;;4.30;99.90;;;;;;4880547;29;20413;-91
2023/04/14 06:10:09;;;;;;;11.75;4.28;;;4.40;99.90;;;;;;4879680;29;20485;-91
2023/04/14 06:12:36;;;;;;;11.90;4.97;;;4.50;99.90;;;;;;4880714;29;20846;-92
2023/04/14 06:15:06;;;;;;;8.43;3.58;;;4.70;99.90;;;;;;4879028;29;21037;-92
2023/04/14 06:17:32;;;;;;;8.25;3.20;;;4.80;99.90;;;;;;4881225;29;20523;-91
2023/04/14 06:19:58;;;;;;;7.77;3.13;;;4.90;99.90;;;;;;4880524;29;20429;-94
2023/04/14 06:22:28;;;;;;;11.90;3.37;;;5.10;99.90;;;;;;4880839;29;20911;-91
2023/04/14 06:24:56;;;;;;;10.93;3.05;;;5.30;99.90;;;;;;4880119;29;20421;-92
2023/04/14 06:27:23;;;;;;;10.13;3.17;;;5.40;99.90;;;;;;4880791;29;20432;-93
2023/04/14 06:29:50;;;;;;;9.48;3.05;;;5.70;99.90;;;;;;4880442;29;20429;-92
2023/04/14 06:32:17;;;;;;;9.20;2.90;;;5.70;99.90;;;;;;4879640;29;20425;-91
2023/04/14 06:34:42;;;;;;;9.43;3.10;;;6.00;99.90;;;;;;4880206;29;20421;-92
2023/04/14 06:37:08;;;;;;;8.25;3.00;;;5.90;99.90;;;;;;4878960;29;20527;-91
2023/04/14 06:39:34;;;;;;;6.82;2.70;;;6.10;99.90;;;;;;4880873;29;20452;-92
2023/04/14 06:41:59;;;;;;;9.43;2.90;;;6.40;99.90;;;;;;4878672;29;20417;-95
2023/04/14 06:44:25;;;;;;;9.27;3.00;;;6.20;99.90;;;;;;4880117;29;20465;-94
2023/04/14 06:46:51;;;;;;;9.27;3.20;;;6.30;99.90;;;;;;4879025;29;20484;-92
2023/04/14 06:49:18;;;;;;;7.75;3.00;;;6.50;99.90;;;;;;4878894;29;20506;-92
2023/04/14 06:51:44;;;;;;;7.85;2.83;;;6.70;99.90;;;;;;4879258;29;20954;-91
2023/04/14 06:54:10;;;;;;;9.13;2.83;;;6.90;99.90;;;;;;4878948;29;20433;-91
2023/04/14 06:56:35;;;;;;;9.93;3.17;;;6.90;99.90;;;;;;4879351;29;20433;-92
2023/04/14 06:59:01;;;;;;;10.97;3.27;;;7.20;99.90;;;;;;4878920;29;20465;-93
2023/04/14 07:01:27;;;;;;;8.23;3.00;;;7.10;99.90;;;;;;4879447;29;20424;-92
2023/04/14 07:03:53;;;;;;;9.65;3.00;;;7.60;99.90;;;;;;4878810;29;20414;-93
2023/04/14 07:06:18;;;;;;;8.00;3.00;;;7.60;99.90;;;;;;4878517;29;20413;-93
2023/04/14 07:08:45;;;;;;;6.20;2.77;;;7.60;99.90;;;;;;4878618;29;20417;-91
2023/04/14 07:11:11;;;;;;;7.40;3.08;;;7.70;99.90;;;;;;4878522;29;20421;-91
2023/04/14 07:13:38;;;;;;;7.15;3.00;;;8.20;99.90;;;;;;4878762;29;20420;-94
2023/04/14 07:16:07;;;;;;;10.90;3.35;;;8.00;99.90;;;;;;4878408;29;20653;-93
2023/04/14 07:18:34;;;;;;;10.38;3.15;;;8.10;99.90;;;;;;4878847;29;20501;-90
2023/04/14 07:21:00;;;;;;;8.70;3.35;;;8.30;99.90;;;;;;4878033;29;20421;-91
2023/04/14 07:23:26;;;;;;;7.28;2.60;;;8.90;99.90;;;;;;4878926;29;20421;-91
2023/04/14 07:25:54;;;;;;;7.73;3.10;;;8.50;99.90;;;;;;4877915;29;20525;-91
2023/04/14 07:28:21;;;;;;;8.02;2.72;;;8.60;99.90;;;;;;4878563;29;20445;-90
2023/04/14 07:30:48;;;;;;;7.20;2.80;;;8.80;99.90;;;;;;4878785;29;20424;-91
2023/04/14 07:33:17;;;;;;;7.68;2.58;;;8.80;99.90;;;;;;4877872;29;20457;-92
2023/04/14 07:35:43;;;;;;;8.77;3.00;;;9.10;99.90;;;;;;4878501;29;20513;-92
2023/04/14 07:38:09;;;;;;;9.98;2.45;;;9.00;99.90;;;;;;4878259;29;20461;-91
2023/04/14 07:40:35;;;;;;;8.07;2.15;;;9.20;99.90;;;;;;4878308;29;20433;-91
2023/04/14 07:43:01;;;;;;;7.87;2.40;;;9.30;99.90;;;;;;4878290;29;20779;-91
2023/04/14 07:45:26;;;;;;;9.20;2.73;;;9.30;99.90;;;;;;4878055;29;20457;-92
2023/04/14 07:47:52;;;;;;;7.22;2.63;;;9.70;99.90;;;;;;4878623;29;20854;-90
2023/04/14 07:50:18;;;;;;;9.70;2.57;;;10.00;99.90;;;;;;4877651;29;20417;-91
2023/04/14 07:52:44;;;;;;;8.90;2.73;;;10.10;99.90;;;;;;4878506;29;20871;-91
2023/04/14 07:55:09;;;;;;;12.13;2.53;;;9.70;99.90;;;;;;4877900;29;20426;-92
2023/04/14 07:57:35;;;;;;;8.63;2.63;;;9.80;99.90;;;;;;4878126;29;20457;-92
2023/04/14 08:00:01;;;;;;;8.98;2.08;;;9.90;99.90;;;;;;4877583;29;20437;-92
2023/04/14 08:02:27;;;;;;;10.07;2.57;;;10.00;99.90;;;;;;4878148;29;20409;-92
2023/04/14 08:04:52;;;;;;;5.90;1.63;;;10.30;99.90;;;;;;4877825;29;20441;-91
2023/04/14 08:07:18;;;;;;;7.18;1.95;;;10.10;99.90;;;;;;4877486;29;20476;-91
2023/04/14 08:09:44;;;;;;;8.48;2.17;;;10.60;99.90;;;;;;4878081;29;20410;-91
2023/04/14 08:12:10;;;;;;;8.27;1.90;;;10.50;99.90;;;;;;4877208;29;20416;-93
2023/04/14 08:14:35;;;;;;;7.82;1.85;;;10.60;99.90;;;;;;4878266;29;21061;-93
2023/04/14 08:17:01;;;;;;;8.27;1.90;;;10.80;99.90;;;;;;4877554;29;20444;-93
2023/04/14 08:19:27;;;;;;;8.33;1.67;;;11.00;99.90;;;;;;4879993;29;20425;-91
2023/04/14 08:21:53;;;;;;;8.13;2.03;;;10.80;99.90;;;;;;4878587;29;21057;-93
2023/04/14 08:24:19;;;;;;;7.07;2.10;;;11.00;99.90;;;;;;4877959;29;20444;-91
2023/04/14 08:26:44;;;;;;;8.88;2.25;;;11.10;99.90;;;;;;4877543;29;20827;-92
2023/04/14 08:29:10;;;;;;;8.47;2.03;;;11.40;99.90;;;;;;4877360;29;20440;-91
2023/04/14 08:31:36;;;;;;;6.97;1.83;;;10.90;99.60;;;;;;4878204;29;20420;-91
2023/04/14 08:34:02;;;;;;;7.68;1.70;;;11.50;99.80;;;;;;4877896;29;20417;-93
2023/04/14 08:36:27;;;;;;;7.30;1.63;;;11.30;99.70;;;;;;4877432;29;20452;-89
2023/04/14 08:38:53;;;;;;;6.07;1.17;;;11.40;96.40;;;;;;4881155;29;20445;-90
2023/04/14 08:41:20;;;;;;;7.75;1.60;;;11.60;94.30;;;;;;4882937;29;20489;-93
2023/04/14 08:43:45;;;;;;;9.07;1.63;;;11.50;97.30;;;;;;4881454;29;20502;-92
2023/04/14 08:46:16;;;;;;;6.82;1.25;;;11.60;97.00;;;;;;4881614;29;20815;-93
2023/04/14 08:48:46;;;;;;;6.93;1.65;;;11.70;93.50;;;;;;4881528;29;20413;-93
2023/04/14 08:51:32;;;;;;;7.40;1.40;;;11.90;91.60;;;;;;4880903;29;20451;-93
2023/04/14 08:53:58;;;;;;;6.80;1.20;;;11.60;92.20;;;;;;4881428;29;20409;-93
2023/04/14 08:56:30;;;;;;;6.55;1.27;;;11.90;91.60;;;;;;4880814;29;20448;-92
2023/04/14 08:58:56;;;;;;;6.20;1.02;;;12.20;92.90;;;;;;4881308;29;20425;-90
2023/04/14 09:01:23;;;;;;;6.38;1.02;;;12.30;80.30;;;;;;4881721;29;20421;-91
2023/04/14 09:03:49;;;;;;;7.30;1.20;;;12.40;88.00;;;;;;4880790;29;20405;-90
2023/04/14 09:06:16;;;;;;;6.85;1.25;;;12.40;84.90;;;;;;4881327;29;20778;-93
2023/04/14 09:08:54;;;;;;;6.32;1.10;;;12.50;81.80;;;;;;4882137;29;20427;-94
2023/04/14 09:11:20;;;;;;;7.55;1.30;;;12.50;82.10;;;;;;4883511;29;20448;-94
2023/04/14 09:13:57;;;;;;;5.93;0.77;;;12.50;72.90;;;;;;4882741;29;20452;-94
2023/04/14 09:16:25;;;;;;;5.50;0.85;;;12.60;70.00;;;;;;4883119;29;20441;-91
2023/04/14 09:18:52;;;;;;;6.27;0.70;;;12.80;71.10;;;;;;4880810;29;20413;-92
2023/04/14 09:21:18;;;;;;;6.35;0.80;;;12.70;68.00;;;;;;4886675;29;20428;-92
2023/04/14 09:23:45;;;;;;;5.93;0.68;;;12.90;64.70;;;;;;4881175;29;20429;-92
2023/04/14 09:26:11;;;;;;;6.25;1.00;;;12.90;67.20;;;;;;4882052;29;20416;-92
2023/04/14 09:28:37;;;;;;;7.35;0.82;;;13.00;66.70;;;;;;4880942;29;20445;-92
2023/04/14 09:31:03;;;;;;;4.82;0.90;;;13.00;69.30;;;;;;4880513;29;20475;-92
2023/04/14 09:33:30;;;;;;;4.38;0.50;;;13.00;67.20;;;;;;4880521;29;20937;-91
2023/04/14 09:35:56;;;;;;;6.03;1.07;;;13.30;62.90;;;;;;4879674;29;20440;-91
2023/04/14 09:38:36;;;;;;;5.20;0.57;;;13.40;60.10;;;;;;4880650;29;20839;-93
2023/04/14 09:41:05;;;;;;;5.05;1.05;;;13.30;59.20;;;;;;4879836;29;20437;-93
2023/04/14 09:43:31;;;;;;;4.75;0.93;;;13.30;61.50;;;;;;4880031;29;20420;-92
2023/04/14 09:46:08;;;;;;;4.90;0.70;;;13.70;59.20;;;;;;4880161;29;20918;-92
2023/04/14 09:48:36;;;;;;;4.78;0.70;;;13.80;60.70;;;;;;4881767;29;20425;-93
2023/04/14 09:51:05;;;;;;;4.60;0.77;;;14.00;62.50;;;;;;4880634;29;20436;-94
2023/04/14 09:53:51;;;;;;;5.27;0.90;;;13.90;63.20;;;;;;4882712;29;20438;-94
2023/04/14 09:56:27;;;;;;;6.53;1.17;;;14.30;60.50;;;;;;4889345;29;20448;-93
2023/04/14 09:58:59;;;;;;;5.55;0.98;;;14.00;58.60;;;;;;4885103;29;20429;-94
2023/04/14 10:01:32;;;;;;;6.50;0.80;;;14.10;59.00;;;;;;4865440;29;20413;-93
2023/04/14 10:04:00;;;;;;;5.03;0.85;;;14.10;60.30;;;;;;4880187;29;20484;-92
2023/04/14 10:06:26;;;;;;;8.13;0.73;;;14.60;59.10;;;;;;4879304;29;20522;-93
2023/04/14 10:08:54;;;;;;;6.65;0.70;;;14.10;56.40;;;;;;4879954;29;20561;-93
2023/04/14 10:11:25;;;;;;;5.18;0.77;;;14.10;57.20;;;;;;4879719;29;20779;-92
2023/04/14 10:14:05;;;;;;;5.97;1.42;;;13.70;57.00;;;;;;4880975;29;20428;-93
2023/04/14 10:16:31;;;;;;;5.85;0.90;;;13.90;58.90;;;;;;4880897;29;20469;-93
2023/04/14 10:18:57;;;;;;;4.38;0.77;;;13.90;59.40;;;;;;4880208;29;20449;-91
2023/04/14 10:21:24;;;;;;;6.03;0.90;;;13.90;59.10;;;;;;4879770;29;20433;-93
2023/04/14 10:23:50;;;;;;;6.07;0.90;;;13.80;56.50;;;;;;4879288;29;20562;-91
2023/04/14 10:26:17;;;;;;;5.93;0.77;;;13.60;56.80;;;;;;4880137;29;20416;-94
2023/04/14 10:28:48;;;;;;;4.80;0.97;;;13.50;56.50;;;;;;4879466;29;20978;-92
2023/04/14 10:31:38;;;;;;;7.68;0.98;;;13.70;60.20;;;;;;4886475;29;20982;-94
2023/04/14 10:34:23;;;;;;;4.95;0.90;;;14.60;59.30;;;;;;4836625;29;20419;-92
2023/04/14 10:36:54;;;;;;;6.60;1.00;;;15.00;56.10;;;;;;4893521;29;20449;-92
2023/04/14 10:39:25;;;;;;;4.90;0.90;;;15.00;53.50;;;;;;4886374;29;20424;-95
2023/04/14 10:41:54;;;;;;;6.03;0.95;;;15.40;54.40;;;;;;4886778;29;20823;-95
2023/04/14 10:44:27;;;;;;;5.75;0.77;;;16.00;54.30;;;;;;4882511;29;20425;-94
2023/04/14 10:46:57;;;;;;;6.43;0.90;;;15.80;50.70;;;;;;4879409;29;20417;-94
2023/04/14 10:49:37;;;;;;;4.10;0.57;;;15.50;52.30;;;;;;4878899;29;20480;-92
2023/04/14 10:52:11;;;;;;;4.85;0.70;;;15.30;51.50;;;;;;4879481;29;20421;-91
2023/04/14 10:55:06;;;;;;;4.43;0.80;;;15.40;52.60;;;;;;4879140;29;20426;-93
2023/04/14 10:57:38;;;;;;;5.60;1.23;;;15.70;50.90;;;;;;4881041;29;20453;-94
2023/04/14 11:00:25;;;;;;;6.30;1.00;;;16.00;52.70;;;;;;4885772;29;20422;-94
2023/04/14 11:03:11;;;;;;;5.05;1.05;;;15.50;50.80;;;;;;4880180;29;20424;-93
2023/04/14 11:05:57;;;;;;;5.40;1.15;;;15.50;51.80;;;;;;4878714;29;20425;-92
2023/04/14 11:08:34;;;;;;;5.60;1.08;;;15.20;54.20;;;;;;4880648;29;20402;-93
2023/04/14 11:11:04;;;;;;;6.88;1.20;;;15.20;51.40;;;;;;4879106;29;20432;-94
2023/04/14 11:14:11;;;;;;;4.60;1.00;;;15.10;51.70;;;;;;4883246;29;20410;-94
2023/04/14 11:16:38;;;;;;;6.55;0.80;;;15.30;52.50;;;;;;4881077;29;20528;-94
2023/04/14 11:19:16;;;;;;;5.10;0.98;;;15.60;53.70;;;;;;4879059;29;20423;-93
2023/04/14 11:21:49;;;;;;;6.55;0.88;;;15.80;50.30;;;;;;4876559;29;20442;-92
2023/04/14 11:24:15;;;;;;;5.07;0.82;;;16.80;50.10;;;;;;4874251;29;20960;-91
2023/04/14 11:26:43;;;;;;;4.57;0.60;;;16.80;47.90;;;;;;4873924;29;20475;-91
2023/04/14 11:29:28;;;;;;;4.82;0.77;;;16.80;48.70;;;;;;4875744;29;20423;-95
2023/04/14 11:32:05;;;;;;;5.40;0.90;;;16.70;48.70;;;;;;4877374;29;20418;-93
2023/04/14 11:34:32;;;;;;;5.53;0.98;;;16.90;47.60;;;;;;4874742;29;20435;-93
2023/04/14 11:37:00;;;;;;;4.18;0.60;;;16.80;48.50;;;;;;4874430;29;20470;-93
2023/04/14 11:39:29;;;;;;;4.80;0.80;;;17.00;47.10;;;;;;4876523;29;20837;-93
2023/04/14 11:42:05;;;;;;;5.13;0.73;;;17.40;50.00;;;;;;4878828;29;20551;-94
2023/04/14 11:44:33;;;;;;;5.00;0.70;;;18.20;47.40;;;;;;4878546;29;20713;-94
2023/04/14 11:46:59;;;;;;;4.28;0.63;;;18.40;43.80;;;;;;4873920;29;20554;-94
2023/04/14 11:49:35;;;;;;;3.45;0.75;;;17.90;43.40;;;;;;4878608;29;20428;-92
2023/04/14 11:52:06;;;;;;;4.63;0.80;;;18.00;43.60;;;;;;4878869;29;20464;-93
2023/04/14 11:54:38;;;;;;;4.57;0.52;;;17.80;44.00;;;;;;4877827;29;20830;-92
2023/04/14 11:57:13;;;;;;;3.33;0.63;;;17.70;43.50;;;;;;4877868;29;20489;-94
2023/04/14 11:59:46;;;;;;;4.38;0.65;;;17.50;44.20;;;;;;4879997;29;20444;-94
2023/04/14 12:02:21;;;;;;;4.28;0.40;;;17.80;46.10;;;;;;4880638;29;20460;-92
2023/04/14 12:04:50;;;;;;;4.38;0.50;;;18.30;46.00;;;;;;4881711;29;20417;-95
2023/04/14 12:07:18;;;;;;;4.32;0.70;;;18.90;43.00;;;;;;4877801;29;20560;-91
2023/04/14 12:09:48;;;;;;;4.10;0.60;;;19.20;43.70;;;;;;4883019;29;20413;-95
2023/04/14 12:12:23;;;;;;;3.95;0.60;;;19.90;42.20;;;;;;4883139;29;20500;-94
2023/04/14 12:14:49;;;;;;;4.45;0.60;;;20.40;40.60;;;;;;4881063;29;20409;-92
2023/04/14 12:17:21;;;;;;;4.68;0.40;;;20.60;37.70;;;;;;4879500;29;20445;-93
2023/04/14 12:19:47;;;;;;;3.40;0.50;;;20.50;37.20;;;;;;4885310;29;20544;-94
2023/04/14 12:22:14;;;;;;;3.00;0.50;;;19.90;37.20;;;;;;4881554;29;20705;-91
2023/04/14 12:24:48;;;;;;;3.53;0.50;;;19.30;38.80;;;;;;4881327;29;20421;-94
2023/04/14 12:27:18;;;;;;;4.20;0.60;;;18.70;39.10;;;;;;4878824;29;20421;-92
2023/04/14 12:29:44;;;;;;;4.53;0.63;;;18.40;40.10;;;;;;4878023;29;20409;-92
2023/04/14 12:32:14;;;;;;;2.78;0.40;;;18.50;41.60;;;;;;4877009;29;20527;-91
2023/04/14 12:34:40;;;;;;;3.92;0.70;;;18.60;43.50;;;;;;4877608;29;20422;-92
2023/04/14 12:37:13;;;;;;;3.95;0.60;;;19.40;42.20;;;;;;4878721;29;20452;-93
2023/04/14 12:40:00;;;;;;;3.75;0.55;;;19.80;39.30;;;;;;4881934;29;20493;-92
2023/04/14 12:42:48;;;;;;;4.82;0.70;;;20.40;41.00;;;;;;4878634;29;20425;-92
2023/04/14 12:45:17;;;;;;;3.20;0.50;;;20.90;38.30;;;;;;4877811;29;20417;-94
2023/04/14 12:47:54;;;;;;;3.25;0.50;;;21.60;38.40;;;;;;4880449;29;20840;-92
2023/04/14 12:50:27;;;;;;;4.03;0.53;;;21.80;36.30;;;;;;4880415;29;20423;-94
2023/04/14 12:53:34;;;;;;;4.43;0.70;;;22.00;35.70;;;;;;4879046;29;20451;-93
2023/04/14 12:56:04;;;;;;;4.43;0.57;;;22.10;35.00;;;;;;4880035;29;20444;-94
2023/04/14 12:58:30;;;;;;;3.10;0.60;;;22.40;37.40;;;;;;4880957;29;20429;-93